sensor_id;sensor_type;location;lat;lon;timestamp;temperature;humidity
5346;DHT22;2695;49.444;11.054;2023-04-01T00:00:47;9.60;99.90
5346;DHT22;2695;49.444;11.054;2023-04-01T00:03:15;9.60;99.90
5346;DHT22;2695;49.444;11.054;2023-04-01T00:05:45;9.70;99.90
5346;DHT22;2695;49.444;11.054;2023-04-01T00:08:14;9.70;99.90
5346;DHT22;2695;49.444;11.054;2023-04-01T00:10:42;9.70;99.90
5346;DHT22;2695;49.444;11.054;2023-04-01T00:13:10;9.70;99.90
5346;DHT22;2695;49.444;11.054;2023-04-01T00:15:37;9.80;99.90
5346;DHT22;2695;49.444;11.054;2023-04-01T00:18:06;9.80;99.90
5346;DHT22;2695;49.444;11.054;2023-04-01T00:20:34;9.80;99.90
5346;DHT22;2695;49.444;11.054;2023-04-01T00:23:04;9.80;99.90
5346;DHT22;2695;49.444;11.054;2023-04-01T00:25:32;9.90;99.90
5346;DHT22;2695;49.444;11.054;2023-04-01T00:28:00;9.90;99.90
5346;DHT22;2695;49.444;11.054;2023-04-01T00:30:28;9.90;99.90
5346;DHT22;2695;49.444;11.054;2023-04-01T00:32:56;9.90;99.90
5346;DHT22;2695;49.444;11.054;2023-04-01T00:35:24;10.00;99.90
5346;DHT22;2695;49.444;11.054;2023-04-01T00:37:52;9.90;99.90
5346;DHT22;2695;49.444;11.054;2023-04-01T00:40:26;10.00;99.90
5346;DHT22;2695;49.444;11.054;2023-04-01T00:42:55;10.00;99.90
5346;DHT22;2695;49.444;11.054;2023-04-01T00:45:33;10.00;99.90
5346;DHT22;2695;49.444;11.054;2023-04-01T00:48:04;10.00;99.90
5346;DHT22;2695;49.444;11.054;2023-04-01T00:50:34;10.00;99.90
5346;DHT22;2695;49.444;11.054;2023-04-01T00:53:03;10.00;99.90
5346;DHT22;2695;49.444;11.054;2023-04-01T00:55:37;10.00;99.90
5346;DHT22;2695;49.444;11.054;2023-04-01T00:58:11;10.00;99.90
5346;DHT22;2695;49.444;11.054;2023-04-01T01:00:41;10.00;99.90
5346;DHT22;2695;49.444;11.054;2023-04-01T01:03:10;10.00;99.90
5346;DHT22;2695;49.444;11.054;2023-04-01T01:05:59;10.10;99.90
5346;DHT22;2695;49.444;11.054;2023-04-01T01:08:46;10.10;99.90
5346;DHT22;2695;49.444;11.054;2023-04-01T01:11:24;10.10;99.90
5346;DHT22;2695;49.444;11.054;2023-04-01T01:13:58;10.00;99.90
5346;DHT22;2695;49.444;11.054;2023-04-01T01:16:29;10.00;99.90
5346;DHT22;2695;49.444;11.054;2023-04-01T01:19:05;10.00;99.90
5346;DHT22;2695;49.444;11.054;2023-04-01T01:21:54;10.00;99.90
5346;DHT22;2695;49.444;11.054;2023-04-01T01:24:40;10.00;99.90
5346;DHT22;2695;49.444;11.054;2023-04-01T01:27:16;10.10;99.90
5346;DHT22;2695;49.444;11.054;2023-04-01T01:30:11;10.10;99.90
5346;DHT22;2695;49.444;11.054;2023-04-01T01:32:54;10.10;99.90
5346;DHT22;2695;49.444;11.054;2023-04-01T01:35:26;10.10;99.90
5346;DHT22;2695;49.444;11.054;2023-04-01T01:38:00;10.10;99.90
5346;DHT22;2695;49.444;11.054;2023-04-01T01:40:31;10.10;99.90
5346;DHT22;2695;49.444;11.054;2023-04-01T01:43:05;10.00;99.90
5346;DHT22;2695;49.444;11.054;2023-04-01T01:45:34;10.10;99.90
5346;DHT22;2695;49.444;11.054;2023-04-01T01:48:04;10.10;99.90
5346;DHT22;2695;49.444;11.054;2023-04-01T01:50:34;10.10;99.90
5346;DHT22;2695;49.444;11.054;2023-04-01T01:53:04;10.10;99.90
5346;DHT22;2695;49.444;11.054;2023-04-01T01:55:35;10.30;99.90
5346;DHT22;2695;49.444;11.054;2023-04-01T01:58:08;10.10;99.90
5346;DHT22;2695;49.444;11.054;2023-04-01T02:00:40;10.70;99.90
5346;DHT22;2695;49.444;11.054;2023-04-01T02:03:10;10.10;99.90
5346;DHT22;2695;49.444;11.054;2023-04-01T02:05:41;10.10;99.90
5346;DHT22;2695;49.444;11.054;2023-04-01T02:08:12;10.10;99.90
5346;DHT22;2695;49.444;11.054;2023-04-01T02:10:45;10.10;99.90
5346;DHT22;2695;49.444;11.054;2023-04-01T02:13:22;10.10;99.90
5346;DHT22;2695;49.444;11.054;2023-04-01T02:15:58;10.10;99.90
5346;DHT22;2695;49.444;11.054;2023-04-01T02:18:30;10.20;99.90
5346;DHT22;2695;49.444;11.054;2023-04-01T02:21:01;8.50;99.90
5346;DHT22;2695;49.444;11.054;2023-04-01T02:23:33;8.50;99.90
5346;DHT22;2695;49.444;11.054;2023-04-01T02:26:03;10.10;99.90
5346;DHT22;2695;49.444;11.054;2023-04-01T02:28:34;10.70;99.90
5346;DHT22;2695;49.444;11.054;2023-04-01T02:31:04;10.40;99.90
5346;DHT22;2695;49.444;11.054;2023-04-01T02:33:36;10.10;99.90
5346;DHT22;2695;49.444;11.054;2023-04-01T02:36:11;10.20;99.90
5346;DHT22;2695;49.444;11.054;2023-04-01T02:38:40;10.20;99.90
5346;DHT22;2695;49.444;11.054;2023-04-01T02:41:09;10.20;99.90
5346;DHT22;2695;49.444;11.054;2023-04-01T02:43:37;11.20;99.90
5346;DHT22;2695;49.444;11.054;2023-04-01T02:46:05;10.80;99.90
5346;DHT22;2695;49.444;11.054;2023-04-01T02:48:33;10.70;99.90
5346;DHT22;2695;49.444;11.054;2023-04-01T02:51:01;9.10;99.90
5346;DHT22;2695;49.444;11.054;2023-04-01T02:53:30;10.20;99.90
5346;DHT22;2695;49.444;11.054;2023-04-01T02:55:58;10.10;99.90
5346;DHT22;2695;49.444;11.054;2023-04-01T02:58:29;10.70;99.90
5346;DHT22;2695;49.444;11.054;2023-04-01T03:00:57;10.80;99.90
5346;DHT22;2695;49.444;11.054;2023-04-01T03:03:25;10.10;99.90
5346;DHT22;2695;49.444;11.054;2023-04-01T03:05:53;10.10;99.90
5346;DHT22;2695;49.444;11.054;2023-04-01T03:08:22;10.60;99.90
5346;DHT22;2695;49.444;11.054;2023-04-01T03:10:52;10.90;99.90
5346;DHT22;2695;49.444;11.054;2023-04-01T03:13:20;10.10;99.90
5346;DHT22;2695;49.444;11.054;2023-04-01T03:15:48;11.50;99.90
5346;DHT22;2695;49.444;11.054;2023-04-01T03:18:15;10.10;99.90
5346;DHT22;2695;49.444;11.054;2023-04-01T03:20:44;10.30;99.90
5346;DHT22;2695;49.444;11.054;2023-04-01T03:23:12;10.10;99.90
5346;DHT22;2695;49.444;11.054;2023-04-01T03:25:40;10.70;99.90
5346;DHT22;2695;49.444;11.054;2023-04-01T03:28:09;10.10;99.90
5346;DHT22;2695;49.444;11.054;2023-04-01T03:30:39;10.40;99.90
5346;DHT22;2695;49.444;11.054;2023-04-01T03:33:07;11.20;99.90
5346;DHT22;2695;49.444;11.054;2023-04-01T03:35:36;10.10;99.90
5346;DHT22;2695;49.444;11.054;2023-04-01T03:38:04;10.20;99.90
5346;DHT22;2695;49.444;11.054;2023-04-01T03:40:33;10.00;99.90
5346;DHT22;2695;49.444;11.054;2023-04-01T03:43:04;10.40;99.90
5346;DHT22;2695;49.444;11.054;2023-04-01T03:45:44;9.90;99.90
5346;DHT22;2695;49.444;11.054;2023-04-01T03:48:19;10.00;99.90
5346;DHT22;2695;49.444;11.054;2023-04-01T03:50:48;9.90;99.90
5346;DHT22;2695;49.444;11.054;2023-04-01T03:53:18;9.90;99.90
5346;DHT22;2695;49.444;11.054;2023-04-01T03:55:46;9.90;99.90
5346;DHT22;2695;49.444;11.054;2023-04-01T03:58:14;10.30;99.90
5346;DHT22;2695;49.444;11.054;2023-04-01T04:00:44;9.90;99.90
5346;DHT22;2695;49.444;11.054;2023-04-01T04:03:12;9.90;99.90
5346;DHT22;2695;49.444;11.054;2023-04-01T04:05:46;9.90;99.90
5346;DHT22;2695;49.444;11.054;2023-04-01T04:08:14;10.40;99.90
5346;DHT22;2695;49.444;11.054;2023-04-01T04:10:47;10.70;99.90
5346;DHT22;2695;49.444;11.054;2023-04-01T04:13:15;10.20;99.90
5346;DHT22;2695;49.444;11.054;2023-04-01T04:15:48;9.90;99.90
5346;DHT22;2695;49.444;11.054;2023-04-01T04:18:16;10.30;99.90
5346;DHT22;2695;49.444;11.054;2023-04-01T04:20:47;9.90;99.90
5346;DHT22;2695;49.444;11.054;2023-04-01T04:23:17;9.80;99.90
5346;DHT22;2695;49.444;11.054;2023-04-01T04:25:53;9.80;99.90
5346;DHT22;2695;49.444;11.054;2023-04-01T04:28:29;9.80;99.90
5346;DHT22;2695;49.444;11.054;2023-04-01T04:30:59;8.70;99.90
5346;DHT22;2695;49.444;11.054;2023-04-01T04:33:28;10.60;99.90
5346;DHT22;2695;49.444;11.054;2023-04-01T04:35:57;9.90;99.90
5346;DHT22;2695;49.444;11.054;2023-04-01T04:38:26;9.80;99.90
5346;DHT22;2695;49.444;11.054;2023-04-01T04:40:54;9.80;99.90
5346;DHT22;2695;49.444;11.054;2023-04-01T04:43:22;9.80;99.90
5346;DHT22;2695;49.444;11.054;2023-04-01T04:45:51;9.80;99.90
5346;DHT22;2695;49.444;11.054;2023-04-01T04:48:20;9.70;99.90
5346;DHT22;2695;49.444;11.054;2023-04-01T04:50:49;9.70;99.90
5346;DHT22;2695;49.444;11.054;2023-04-01T04:53:18;9.70;99.90
5346;DHT22;2695;49.444;11.054;2023-04-01T04:55:48;9.20;99.90
5346;DHT22;2695;49.444;11.054;2023-04-01T04:58:17;10.70;99.90
5346;DHT22;2695;49.444;11.054;2023-04-01T05:00:45;9.60;99.90
5346;DHT22;2695;49.444;11.054;2023-04-01T05:03:14;9.80;99.90
5346;DHT22;2695;49.444;11.054;2023-04-01T05:05:50;9.60;99.90
5346;DHT22;2695;49.444;11.054;2023-04-01T05:08:19;9.90;99.90
5346;DHT22;2695;49.444;11.054;2023-04-01T05:10:47;9.60;99.90
5346;DHT22;2695;49.444;11.054;2023-04-01T05:13:15;9.90;99.90
5346;DHT22;2695;49.444;11.054;2023-04-01T05:15:46;9.60;99.90
5346;DHT22;2695;49.444;11.054;2023-04-01T05:18:14;9.60;99.90
5346;DHT22;2695;49.444;11.054;2023-04-01T05:20:46;10.00;99.90
5346;DHT22;2695;49.444;11.054;2023-04-01T05:23:17;9.90;99.90
5346;DHT22;2695;49.444;11.054;2023-04-01T05:25:48;9.90;99.90
5346;DHT22;2695;49.444;11.054;2023-04-01T05:28:16;9.20;99.90
5346;DHT22;2695;49.444;11.054;2023-04-01T05:30:44;9.50;99.90
5346;DHT22;2695;49.444;11.054;2023-04-01T05:33:19;9.50;99.90
5346;DHT22;2695;49.444;11.054;2023-04-01T05:35:47;9.50;99.90
5346;DHT22;2695;49.444;11.054;2023-04-01T05:38:19;10.00;99.90
5346;DHT22;2695;49.444;11.054;2023-04-01T05:40:47;9.60;99.90
5346;DHT22;2695;49.444;11.054;2023-04-01T05:43:15;10.90;99.90
5346;DHT22;2695;49.444;11.054;2023-04-01T05:45:43;9.60;99.90
5346;DHT22;2695;49.444;11.054;2023-04-01T05:48:11;9.60;99.90
5346;DHT22;2695;49.444;11.054;2023-04-01T05:50:44;9.70;99.90
5346;DHT22;2695;49.444;11.054;2023-04-01T05:53:12;10.00;99.90
5346;DHT22;2695;49.444;11.054;2023-04-01T05:55:41;10.50;99.90
5346;DHT22;2695;49.444;11.054;2023-04-01T05:58:09;11.40;99.90
5346;DHT22;2695;49.444;11.054;2023-04-01T06:00:38;9.90;99.90
5346;DHT22;2695;49.444;11.054;2023-04-01T06:03:06;9.90;99.90
5346;DHT22;2695;49.444;11.054;2023-04-01T06:05:39;9.90;99.90
5346;DHT22;2695;49.444;11.054;2023-04-01T06:08:10;10.10;99.90
5346;DHT22;2695;49.444;11.054;2023-04-01T06:10:53;10.00;99.90
5346;DHT22;2695;49.444;11.054;2023-04-01T06:13:35;10.20;99.90
5346;DHT22;2695;49.444;11.054;2023-04-01T06:16:09;10.00;99.90
5346;DHT22;2695;49.444;11.054;2023-04-01T06:24:49;10.20;99.90
5346;DHT22;2695;49.444;11.054;2023-04-01T06:27:34;10.30;99.90
5346;DHT22;2695;49.444;11.054;2023-04-01T06:30:11;10.40;99.90
5346;DHT22;2695;49.444;11.054;2023-04-01T06:32:56;10.50;99.90
5346;DHT22;2695;49.444;11.054;2023-04-01T06:35:35;10.60;99.90
5346;DHT22;2695;49.444;11.054;2023-04-01T06:38:20;10.80;99.90
5346;DHT22;2695;49.444;11.054;2023-04-01T06:41:04;11.00;99.90
5346;DHT22;2695;49.444;11.054;2023-04-01T06:43:41;11.00;99.90
5346;DHT22;2695;49.444;11.054;2023-04-01T06:46:16;11.20;99.90
5346;DHT22;2695;49.444;11.054;2023-04-01T06:48:59;11.00;99.90
5346;DHT22;2695;49.444;11.054;2023-04-01T06:51:36;11.00;99.90
5346;DHT22;2695;49.444;11.054;2023-04-01T06:54:10;11.10;99.90
5346;DHT22;2695;49.444;11.054;2023-04-01T06:56:42;11.20;99.90
5346;DHT22;2695;49.444;11.054;2023-04-01T06:59:15;11.30;99.90
5346;DHT22;2695;49.444;11.054;2023-04-01T07:01:45;11.40;99.90
5346;DHT22;2695;49.444;11.054;2023-04-01T07:04:20;12.60;99.90
5346;DHT22;2695;49.444;11.054;2023-04-01T07:06:54;11.60;99.90
5346;DHT22;2695;49.444;11.054;2023-04-01T07:09:26;12.40;99.90
5346;DHT22;2695;49.444;11.054;2023-04-01T07:12:00;12.00;99.90
5346;DHT22;2695;49.444;11.054;2023-04-01T07:14:32;11.70;99.90
5346;DHT22;2695;49.444;11.054;2023-04-01T07:17:04;11.80;99.90
5346;DHT22;2695;49.444;11.054;2023-04-01T07:19:39;12.20;99.90
5346;DHT22;2695;49.444;11.054;2023-04-01T07:22:20;11.90;99.90
5346;DHT22;2695;49.444;11.054;2023-04-01T07:24:50;12.00;99.90
5346;DHT22;2695;49.444;11.054;2023-04-01T07:27:19;12.00;99.90
5346;DHT22;2695;49.444;11.054;2023-04-01T07:29:51;11.80;99.90
5346;DHT22;2695;49.444;11.054;2023-04-01T07:32:26;11.90;99.90
5346;DHT22;2695;49.444;11.054;2023-04-01T07:35:12;11.90;99.90
5346;DHT22;2695;49.444;11.054;2023-04-01T07:38:01;12.00;99.90
5346;DHT22;2695;49.444;11.054;2023-04-01T07:40:37;12.00;99.90
5346;DHT22;2695;49.444;11.054;2023-04-01T07:43:32;12.00;99.90
5346;DHT22;2695;49.444;11.054;2023-04-01T07:46:41;12.00;99.90
5346;DHT22;2695;49.444;11.054;2023-04-01T07:49:17;11.90;99.90
5346;DHT22;2695;49.444;11.054;2023-04-01T07:51:54;11.80;99.90
5346;DHT22;2695;49.444;11.054;2023-04-01T07:54:29;11.60;99.90
5346;DHT22;2695;49.444;11.054;2023-04-01T07:57:03;11.60;99.90
5346;DHT22;2695;49.444;11.054;2023-04-01T07:59:43;11.20;99.90
5346;DHT22;2695;49.444;11.054;2023-04-01T08:02:25;13.00;99.90
5346;DHT22;2695;49.444;11.054;2023-04-01T08:05:00;11.90;99.90
5346;DHT22;2695;49.444;11.054;2023-04-01T08:07:40;10.50;99.90
5346;DHT22;2695;49.444;11.054;2023-04-01T08:10:14;12.10;99.90
5346;DHT22;2695;49.444;11.054;2023-04-01T08:13:02;12.00;99.90
5346;DHT22;2695;49.444;11.054;2023-04-01T08:15:40;12.40;99.90
5346;DHT22;2695;49.444;11.054;2023-04-01T08:18:21;12.70;99.90
5346;DHT22;2695;49.444;11.054;2023-04-01T08:20:56;12.90;99.90
5346;DHT22;2695;49.444;11.054;2023-04-01T08:23:28;12.40;99.90
5346;DHT22;2695;49.444;11.054;2023-04-01T08:26:05;11.90;99.90
5346;DHT22;2695;49.444;11.054;2023-04-01T08:28:39;12.00;99.90
5346;DHT22;2695;49.444;11.054;2023-04-01T08:31:11;12.70;99.90
5346;DHT22;2695;49.444;11.054;2023-04-01T08:33:42;12.90;99.90
5346;DHT22;2695;49.444;11.054;2023-04-01T08:36:14;12.60;99.90
5346;DHT22;2695;49.444;11.054;2023-04-01T08:38:46;12.60;99.90
5346;DHT22;2695;49.444;11.054;2023-04-01T08:41:32;13.00;99.90
5346;DHT22;2695;49.444;11.054;2023-04-01T08:47:41;12.30;99.90
5346;DHT22;2695;49.444;11.054;2023-04-01T08:50:40;12.30;99.90
5346;DHT22;2695;49.444;11.054;2023-04-01T08:53:21;12.40;99.90
5346;DHT22;2695;49.444;11.054;2023-04-01T08:56:06;12.50;99.90
5346;DHT22;2695;49.444;11.054;2023-04-01T09:02:05;12.40;99.90
5346;DHT22;2695;49.444;11.054;2023-04-01T09:05:11;12.40;99.90
5346;DHT22;2695;49.444;11.054;2023-04-01T09:07:53;12.40;99.90
5346;DHT22;2695;49.444;11.054;2023-04-01T09:10:45;12.30;99.90
5346;DHT22;2695;49.444;11.054;2023-04-01T09:13:48;12.30;99.90
5346;DHT22;2695;49.444;11.054;2023-04-01T09:16:30;12.20;99.90
5346;DHT22;2695;49.444;11.054;2023-04-01T09:19:22;12.50;99.90
5346;DHT22;2695;49.444;11.054;2023-04-01T09:22:02;12.20;99.90
5346;DHT22;2695;49.444;11.054;2023-04-01T09:28:10;12.40;99.90
5346;DHT22;2695;49.444;11.054;2023-04-01T09:36:52;12.40;99.90
5346;DHT22;2695;49.444;11.054;2023-04-01T09:39:34;11.70;99.90
5346;DHT22;2695;49.444;11.054;2023-04-01T09:42:37;12.30;99.90
5346;DHT22;2695;49.444;11.054;2023-04-01T09:45:13;12.00;99.90
5346;DHT22;2695;49.444;11.054;2023-04-01T09:47:56;12.00;99.90
5346;DHT22;2695;49.444;11.054;2023-04-01T09:50:34;12.20;99.90
5346;DHT22;2695;49.444;11.054;2023-04-01T09:56:33;12.30;99.90
5346;DHT22;2695;49.444;11.054;2023-04-01T09:59:59;12.20;99.90
5346;DHT22;2695;49.444;11.054;2023-04-01T10:02:55;12.30;99.90
5346;DHT22;2695;49.444;11.054;2023-04-01T10:06:09;12.30;99.90
5346;DHT22;2695;49.444;11.054;2023-04-01T10:24:47;12.00;99.90
5346;DHT22;2695;49.444;11.054;2023-04-01T10:34:10;12.50;99.90
5346;DHT22;2695;49.444;11.054;2023-04-01T10:36:53;12.60;99.90
5346;DHT22;2695;49.444;11.054;2023-04-01T10:39:54;12.40;99.90
5346;DHT22;2695;49.444;11.054;2023-04-01T10:46:11;12.20;99.90
5346;DHT22;2695;49.444;11.054;2023-04-01T10:49:16;11.70;99.90
5346;DHT22;2695;49.444;11.054;2023-04-01T10:52:32;11.50;99.90
5346;DHT22;2695;49.444;11.054;2023-04-01T10:55:19;11.40;99.90
5346;DHT22;2695;49.444;11.054;2023-04-01T10:58:12;11.40;99.90
5346;DHT22;2695;49.444;11.054;2023-04-01T11:01:07;11.00;99.90
5346;DHT22;2695;49.444;11.054;2023-04-01T11:07:45;10.80;99.90
5346;DHT22;2695;49.444;11.054;2023-04-01T11:11:07;10.70;99.90
5346;DHT22;2695;49.444;11.054;2023-04-01T11:20:40;10.80;99.90
5346;DHT22;2695;49.444;11.054;2023-04-01T11:23:30;11.00;99.90
5346;DHT22;2695;49.444;11.054;2023-04-01T11:26:21;11.20;99.90
5346;DHT22;2695;49.444;11.054;2023-04-01T11:31:58;11.10;99.90
5346;DHT22;2695;49.444;11.054;2023-04-01T11:34:37;11.10;99.90
5346;DHT22;2695;49.444;11.054;2023-04-01T11:37:21;11.10;99.90
5346;DHT22;2695;49.444;11.054;2023-04-01T11:40:01;11.10;99.90
5346;DHT22;2695;49.444;11.054;2023-04-01T11:42:40;11.20;99.90
5346;DHT22;2695;49.444;11.054;2023-04-01T11:45:27;11.20;99.90
5346;DHT22;2695;49.444;11.054;2023-04-01T11:51:16;11.80;99.90
5346;DHT22;2695;49.444;11.054;2023-04-01T11:53:55;11.50;99.90
5346;DHT22;2695;49.444;11.054;2023-04-01T11:56:39;11.60;99.90
5346;DHT22;2695;49.444;11.054;2023-04-01T11:59:46;11.60;99.90
5346;DHT22;2695;49.444;11.054;2023-04-01T12:02:23;11.60;99.90
5346;DHT22;2695;49.444;11.054;2023-04-01T12:05:14;11.60;99.90
5346;DHT22;2695;49.444;11.054;2023-04-01T12:08:00;11.50;99.90
5346;DHT22;2695;49.444;11.054;2023-04-01T12:10:38;11.40;99.90
5346;DHT22;2695;49.444;11.054;2023-04-01T12:13:16;11.40;99.90
5346;DHT22;2695;49.444;11.054;2023-04-01T12:15:58;11.50;99.90
5346;DHT22;2695;49.444;11.054;2023-04-01T12:18:35;11.70;99.90
5346;DHT22;2695;49.444;11.054;2023-04-01T12:21:15;12.00;99.90
5346;DHT22;2695;49.444;11.054;2023-04-01T12:24:03;12.10;99.90
5346;DHT22;2695;49.444;11.054;2023-04-01T12:26:47;12.20;99.90
5346;DHT22;2695;49.444;11.054;2023-04-01T12:32:31;12.10;99.90
5346;DHT22;2695;49.444;11.054;2023-04-01T12:35:19;12.10;99.90
5346;DHT22;2695;49.444;11.054;2023-04-01T12:40:45;11.80;99.90
5346;DHT22;2695;49.444;11.054;2023-04-01T12:46:19;11.60;99.90
5346;DHT22;2695;49.444;11.054;2023-04-01T12:49:12;11.60;99.90
5346;DHT22;2695;49.444;11.054;2023-04-01T12:51:57;11.70;99.90
5346;DHT22;2695;49.444;11.054;2023-04-01T12:54:48;11.70;99.90
5346;DHT22;2695;49.444;11.054;2023-04-01T13:00:27;11.90;99.90
5346;DHT22;2695;49.444;11.054;2023-04-01T13:03:15;12.00;99.90
5346;DHT22;2695;49.444;11.054;2023-04-01T13:09:10;12.20;99.90
5346;DHT22;2695;49.444;11.054;2023-04-01T13:11:54;12.10;99.90
5346;DHT22;2695;49.444;11.054;2023-04-01T13:14:50;12.20;99.90
5346;DHT22;2695;49.444;11.054;2023-04-01T13:17:25;12.20;99.90
5346;DHT22;2695;49.444;11.054;2023-04-01T13:20:02;12.20;99.90
5346;DHT22;2695;49.444;11.054;2023-04-01T13:22:45;12.20;99.90
5346;DHT22;2695;49.444;11.054;2023-04-01T13:25:24;12.10;99.90
5346;DHT22;2695;49.444;11.054;2023-04-01T13:27:58;12.10;99.90
5346;DHT22;2695;49.444;11.054;2023-04-01T13:30:34;12.30;99.90
5346;DHT22;2695;49.444;11.054;2023-04-01T13:33:11;12.30;99.90
5346;DHT22;2695;49.444;11.054;2023-04-01T13:35:48;12.30;99.90
5346;DHT22;2695;49.444;11.054;2023-04-01T13:38:38;12.40;99.90
5346;DHT22;2695;49.444;11.054;2023-04-01T13:41:18;12.30;99.90
5346;DHT22;2695;49.444;11.054;2023-04-01T13:43:56;12.40;99.90
5346;DHT22;2695;49.444;11.054;2023-04-01T13:46:41;12.50;99.90
5346;DHT22;2695;49.444;11.054;2023-04-01T13:49:55;12.60;99.90
5346;DHT22;2695;49.444;11.054;2023-04-01T13:52:47;12.60;99.90
5346;DHT22;2695;49.444;11.054;2023-04-01T13:55:36;12.60;99.90
5346;DHT22;2695;49.444;11.054;2023-04-01T13:58:28;12.70;99.90
5346;DHT22;2695;49.444;11.054;2023-04-01T14:01:06;12.70;99.90
5346;DHT22;2695;49.444;11.054;2023-04-01T14:03:50;12.70;99.90
5346;DHT22;2695;49.444;11.054;2023-04-01T14:06:29;12.60;99.90
5346;DHT22;2695;49.444;11.054;2023-04-01T14:12:04;12.50;99.90
5346;DHT22;2695;49.444;11.054;2023-04-01T14:14:44;12.40;99.90
5346;DHT22;2695;49.444;11.054;2023-04-01T14:17:25;12.40;99.90
5346;DHT22;2695;49.444;11.054;2023-04-01T14:20:25;12.30;99.90
5346;DHT22;2695;49.444;11.054;2023-04-01T14:29:12;12.20;99.90
5346;DHT22;2695;49.444;11.054;2023-04-01T14:31:59;12.10;99.90
5346;DHT22;2695;49.444;11.054;2023-04-01T14:37:36;12.00;99.90
5346;DHT22;2695;49.444;11.054;2023-04-01T14:40:22;11.90;99.90
5346;DHT22;2695;49.444;11.054;2023-04-01T14:43:03;11.80;99.90
5346;DHT22;2695;49.444;11.054;2023-04-01T14:46:01;11.80;99.90
5346;DHT22;2695;49.444;11.054;2023-04-01T14:48:36;11.90;99.90
5346;DHT22;2695;49.444;11.054;2023-04-01T14:51:13;11.90;99.90
5346;DHT22;2695;49.444;11.054;2023-04-01T14:53:50;11.80;99.90
5346;DHT22;2695;49.444;11.054;2023-04-01T14:56:37;11.90;99.90
5346;DHT22;2695;49.444;11.054;2023-04-01T14:59:10;11.80;99.90
5346;DHT22;2695;49.444;11.054;2023-04-01T15:01:45;11.70;99.90
5346;DHT22;2695;49.444;11.054;2023-04-01T15:04:44;11.60;99.90
5346;DHT22;2695;49.444;11.054;2023-04-01T15:10:31;11.60;99.90
5346;DHT22;2695;49.444;11.054;2023-04-01T15:13:12;11.60;99.90
5346;DHT22;2695;49.444;11.054;2023-04-01T15:15:51;11.70;99.90
5346;DHT22;2695;49.444;11.054;2023-04-01T15:18:34;11.70;99.90
5346;DHT22;2695;49.444;11.054;2023-04-01T15:21:19;11.80;99.90
5346;DHT22;2695;49.444;11.054;2023-04-01T15:23:57;11.90;99.90
5346;DHT22;2695;49.444;11.054;2023-04-01T15:26:47;11.90;99.90
5346;DHT22;2695;49.444;11.054;2023-04-01T15:32:17;11.90;99.90
5346;DHT22;2695;49.444;11.054;2023-04-01T15:34:57;11.90;99.90
5346;DHT22;2695;49.444;11.054;2023-04-01T15:37:35;11.80;99.90
5346;DHT22;2695;49.444;11.054;2023-04-01T15:40:15;11.80;99.90
5346;DHT22;2695;49.444;11.054;2023-04-01T15:43:03;11.80;99.90
5346;DHT22;2695;49.444;11.054;2023-04-01T15:45:43;11.90;99.90
5346;DHT22;2695;49.444;11.054;2023-04-01T15:48:22;11.90;99.90
5346;DHT22;2695;49.444;11.054;2023-04-01T15:51:02;11.80;99.90
5346;DHT22;2695;49.444;11.054;2023-04-01T15:56:30;11.90;99.90
5346;DHT22;2695;49.444;11.054;2023-04-01T15:59:18;11.90;99.90
5346;DHT22;2695;49.444;11.054;2023-04-01T16:01:53;11.90;99.90
5346;DHT22;2695;49.444;11.054;2023-04-01T16:04:46;12.00;99.90
5346;DHT22;2695;49.444;11.054;2023-04-01T16:10:23;11.70;99.90
5346;DHT22;2695;49.444;11.054;2023-04-01T16:13:04;11.60;99.90
5346;DHT22;2695;49.444;11.054;2023-04-01T16:15:44;11.50;99.90
5346;DHT22;2695;49.444;11.054;2023-04-01T16:18:35;11.50;99.90
5346;DHT22;2695;49.444;11.054;2023-04-01T16:21:08;11.40;99.90
5346;DHT22;2695;49.444;11.054;2023-04-01T16:23:47;11.40;99.90
5346;DHT22;2695;49.444;11.054;2023-04-01T16:26:22;11.40;99.90
5346;DHT22;2695;49.444;11.054;2023-04-01T16:28:57;11.40;99.90
5346;DHT22;2695;49.444;11.054;2023-04-01T16:31:35;11.40;99.90
5346;DHT22;2695;49.444;11.054;2023-04-01T16:34:10;11.40;99.90
5346;DHT22;2695;49.444;11.054;2023-04-01T16:36:46;11.30;99.90
5346;DHT22;2695;49.444;11.054;2023-04-01T16:39:26;11.30;99.90
5346;DHT22;2695;49.444;11.054;2023-04-01T16:42:11;11.20;99.90
5346;DHT22;2695;49.444;11.054;2023-04-01T16:44:49;11.10;99.90
5346;DHT22;2695;49.444;11.054;2023-04-01T16:47:20;11.10;99.90
5346;DHT22;2695;49.444;11.054;2023-04-01T16:49:52;11.10;99.90
5346;DHT22;2695;49.444;11.054;2023-04-01T16:52:35;11.20;99.90
5346;DHT22;2695;49.444;11.054;2023-04-01T16:55:15;11.10;99.90
5346;DHT22;2695;49.444;11.054;2023-04-01T16:57:48;11.10;99.90
5346;DHT22;2695;49.444;11.054;2023-04-01T17:00:25;11.00;99.90
5346;DHT22;2695;49.444;11.054;2023-04-01T17:03:03;11.00;99.90
5346;DHT22;2695;49.444;11.054;2023-04-01T17:05:43;11.00;99.90
5346;DHT22;2695;49.444;11.054;2023-04-01T17:08:21;11.00;99.90
5346;DHT22;2695;49.444;11.054;2023-04-01T17:10:56;10.90;99.90
5346;DHT22;2695;49.444;11.054;2023-04-01T17:13:34;10.90;99.90
5346;DHT22;2695;49.444;11.054;2023-04-01T17:16:16;10.90;99.90
5346;DHT22;2695;49.444;11.054;2023-04-01T17:18:55;10.90;99.90
5346;DHT22;2695;49.444;11.054;2023-04-01T17:21:34;10.90;99.90
5346;DHT22;2695;49.444;11.054;2023-04-01T17:24:10;10.90;99.90
5346;DHT22;2695;49.444;11.054;2023-04-01T17:26:47;10.90;99.90
5346;DHT22;2695;49.444;11.054;2023-04-01T17:29:24;10.80;99.90
5346;DHT22;2695;49.444;11.054;2023-04-01T17:32:03;10.80;99.90
5346;DHT22;2695;49.444;11.054;2023-04-01T17:34:54;10.80;99.90
5346;DHT22;2695;49.444;11.054;2023-04-01T17:37:34;10.80;99.90
5346;DHT22;2695;49.444;11.054;2023-04-01T17:40:20;10.80;99.90
5346;DHT22;2695;49.444;11.054;2023-04-01T17:42:59;10.80;99.90
5346;DHT22;2695;49.444;11.054;2023-04-01T17:45:36;10.80;99.90
5346;DHT22;2695;49.444;11.054;2023-04-01T17:48:18;10.80;99.90
5346;DHT22;2695;49.444;11.054;2023-04-01T17:50:59;10.80;99.90
5346;DHT22;2695;49.444;11.054;2023-04-01T17:53:36;10.80;99.90
5346;DHT22;2695;49.444;11.054;2023-04-01T17:56:14;10.80;99.90
5346;DHT22;2695;49.444;11.054;2023-04-01T17:58:48;10.80;99.90
5346;DHT22;2695;49.444;11.054;2023-04-01T18:01:26;10.80;99.90
5346;DHT22;2695;49.444;11.054;2023-04-01T18:04:08;10.80;99.90
5346;DHT22;2695;49.444;11.054;2023-04-01T18:06:50;10.80;99.90
5346;DHT22;2695;49.444;11.054;2023-04-01T18:09:28;10.80;99.90
5346;DHT22;2695;49.444;11.054;2023-04-01T18:12:09;10.80;99.90
5346;DHT22;2695;49.444;11.054;2023-04-01T18:14:54;10.80;99.90
5346;DHT22;2695;49.444;11.054;2023-04-01T18:17:33;10.80;99.90
5346;DHT22;2695;49.444;11.054;2023-04-01T18:20:18;10.70;99.90
5346;DHT22;2695;49.444;11.054;2023-04-01T18:22:57;10.70;99.90
5346;DHT22;2695;49.444;11.054;2023-04-01T18:25:30;10.70;99.90
5346;DHT22;2695;49.444;11.054;2023-04-01T18:28:17;10.70;99.90
5346;DHT22;2695;49.444;11.054;2023-04-01T18:30:53;10.60;99.90
5346;DHT22;2695;49.444;11.054;2023-04-01T18:33:28;10.60;99.90
5346;DHT22;2695;49.444;11.054;2023-04-01T18:36:08;10.60;99.90
5346;DHT22;2695;49.444;11.054;2023-04-01T18:38:39;10.60;99.90
5346;DHT22;2695;49.444;11.054;2023-04-01T18:41:13;10.60;99.90